sensor_id;sensor_type;location;lat;lon;timestamp;P1;durP1;ratioP1;P2;durP2;ratioP2
42726;SDS011;28372;56.832;60.658;2023-08-24T00:00:54;6.28;;;2.00;;
42726;SDS011;28372;56.832;60.658;2023-08-24T00:03:22;5.47;;;1.45;;
42726;SDS011;28372;56.832;60.658;2023-08-24T00:05:50;3.55;;;1.50;;
42726;SDS011;28372;56.832;60.658;2023-08-24T00:08:18;5.22;;;1.45;;
42726;SDS011;28372;56.832;60.658;2023-08-24T00:10:46;4.53;;;1.60;;
42726;SDS011;28372;56.832;60.658;2023-08-24T00:13:14;5.53;;;1.70;;
42726;SDS011;28372;56.832;60.658;2023-08-24T00:15:42;4.30;;;1.50;;
42726;SDS011;28372;56.832;60.658;2023-08-24T00:18:10;2.88;;;1.42;;
42726;SDS011;28372;56.832;60.658;2023-08-24T00:20:56;4.80;;;1.48;;
42726;SDS011;28372;56.832;60.658;2023-08-24T00:23:24;3.75;;;1.30;;
42726;SDS011;28372;56.832;60.658;2023-08-24T00:25:52;5.93;;;1.50;;
42726;SDS011;28372;56.832;60.658;2023-08-24T00:28:20;3.30;;;1.42;;
42726;SDS011;28372;56.832;60.658;2023-08-24T00:30:47;3.65;;;1.30;;
42726;SDS011;28372;56.832;60.658;2023-08-24T00:33:15;3.05;;;1.50;;
42726;SDS011;28372;56.832;60.658;2023-08-24T00:35:43;5.22;;;1.48;;
42726;SDS011;28372;56.832;60.658;2023-08-24T00:38:10;8.48;;;1.52;;
42726;SDS011;28372;56.832;60.658;2023-08-24T00:40:39;3.28;;;1.40;;
42726;SDS011;28372;56.832;60.658;2023-08-24T00:43:09;3.30;;;1.48;;
42726;SDS011;28372;56.832;60.658;2023-08-24T00:45:37;3.72;;;1.70;;
42726;SDS011;28372;56.832;60.658;2023-08-24T00:48:05;4.60;;;1.70;;
42726;SDS011;28372;56.832;60.658;2023-08-24T00:50:33;5.20;;;1.80;;
42726;SDS011;28372;56.832;60.658;2023-08-24T00:53:01;3.67;;;1.63;;
42726;SDS011;28372;56.832;60.658;2023-08-24T00:55:29;4.05;;;1.40;;
42726;SDS011;28372;56.832;60.658;2023-08-24T00:57:57;4.47;;;1.67;;
42726;SDS011;28372;56.832;60.658;2023-08-24T01:00:25;3.92;;;1.52;;
42726;SDS011;28372;56.832;60.658;2023-08-24T01:02:53;3.28;;;1.42;;
42726;SDS011;28372;56.832;60.658;2023-08-24T01:05:21;3.95;;;1.40;;
42726;SDS011;28372;56.832;60.658;2023-08-24T01:07:49;2.78;;;1.48;;
42726;SDS011;28372;56.832;60.658;2023-08-24T01:10:18;3.22;;;1.38;;
42726;SDS011;28372;56.832;60.658;2023-08-24T01:13:06;4.13;;;1.40;;
42726;SDS011;28372;56.832;60.658;2023-08-24T01:18:08;3.05;;;1.38;;
42726;SDS011;28372;56.832;60.658;2023-08-24T01:20:42;5.03;;;1.42;;
42726;SDS011;28372;56.832;60.658;2023-08-24T01:26:06;2.75;;;1.30;;
42726;SDS011;28372;56.832;60.658;2023-08-24T01:28:35;3.60;;;1.20;;
42726;SDS011;28372;56.832;60.658;2023-08-24T01:31:06;2.67;;;1.10;;
42726;SDS011;28372;56.832;60.658;2023-08-24T01:33:35;2.38;;;1.17;;
42726;SDS011;28372;56.832;60.658;2023-08-24T01:36:03;2.60;;;1.10;;
42726;SDS011;28372;56.832;60.658;2023-08-24T01:38:30;5.15;;;1.25;;
42726;SDS011;28372;56.832;60.658;2023-08-24T01:40:59;4.15;;;1.30;;
42726;SDS011;28372;56.832;60.658;2023-08-24T01:43:32;3.13;;;1.40;;
42726;SDS011;28372;56.832;60.658;2023-08-24T01:46:07;4.40;;;1.50;;
42726;SDS011;28372;56.832;60.658;2023-08-24T01:48:35;3.25;;;1.60;;
42726;SDS011;28372;56.832;60.658;2023-08-24T01:51:04;4.57;;;1.40;;
42726;SDS011;28372;56.832;60.658;2023-08-24T01:53:32;4.40;;;1.60;;
42726;SDS011;28372;56.832;60.658;2023-08-24T01:56:06;2.95;;;1.40;;
42726;SDS011;28372;56.832;60.658;2023-08-24T01:58:35;3.40;;;1.52;;
42726;SDS011;28372;56.832;60.658;2023-08-24T02:01:07;4.13;;;1.35;;
42726;SDS011;28372;56.832;60.658;2023-08-24T02:03:36;3.47;;;1.23;;
42726;SDS011;28372;56.832;60.658;2023-08-24T02:06:07;2.22;;;1.08;;
42726;SDS011;28372;56.832;60.658;2023-08-24T02:08:35;3.90;;;1.50;;
42726;SDS011;28372;56.832;60.658;2023-08-24T02:11:03;2.83;;;1.10;;
42726;SDS011;28372;56.832;60.658;2023-08-24T02:13:32;2.05;;;1.02;;
42726;SDS011;28372;56.832;60.658;2023-08-24T02:16:04;3.90;;;1.30;;
42726;SDS011;28372;56.832;60.658;2023-08-24T02:18:35;3.15;;;1.45;;
42726;SDS011;28372;56.832;60.658;2023-08-24T02:21:08;2.70;;;1.20;;
42726;SDS011;28372;56.832;60.658;2023-08-24T02:23:39;3.58;;;1.40;;
42726;SDS011;28372;56.832;60.658;2023-08-24T02:26:08;2.95;;;1.40;;
42726;SDS011;28372;56.832;60.658;2023-08-24T02:28:36;2.65;;;1.40;;
42726;SDS011;28372;56.832;60.658;2023-08-24T02:31:05;3.88;;;1.33;;
42726;SDS011;28372;56.832;60.658;2023-08-24T02:33:33;2.63;;;1.23;;
42726;SDS011;28372;56.832;60.658;2023-08-24T02:36:02;3.72;;;1.30;;
42726;SDS011;28372;56.832;60.658;2023-08-24T02:38:30;2.30;;;0.93;;
42726;SDS011;28372;56.832;60.658;2023-08-24T02:41:04;3.20;;;1.25;;
42726;SDS011;28372;56.832;60.658;2023-08-24T02:46:04;2.78;;;1.20;;
42726;SDS011;28372;56.832;60.658;2023-08-24T02:48:34;2.03;;;1.00;;
42726;SDS011;28372;56.832;60.658;2023-08-24T02:51:03;3.47;;;1.20;;
42726;SDS011;28372;56.832;60.658;2023-08-24T02:53:32;2.88;;;1.20;;
42726;SDS011;28372;56.832;60.658;2023-08-24T02:56:00;2.72;;;1.10;;
42726;SDS011;28372;56.832;60.658;2023-08-24T02:58:28;3.80;;;1.10;;
42726;SDS011;28372;56.832;60.658;2023-08-24T03:00:56;2.40;;;1.30;;
42726;SDS011;28372;56.832;60.658;2023-08-24T03:03:24;3.75;;;1.40;;
42726;SDS011;28372;56.832;60.658;2023-08-24T03:05:56;2.65;;;1.23;;
42726;SDS011;28372;56.832;60.658;2023-08-24T03:08:31;4.85;;;1.45;;
42726;SDS011;28372;56.832;60.658;2023-08-24T03:11:01;4.18;;;1.80;;
42726;SDS011;28372;56.832;60.658;2023-08-24T03:13:30;6.05;;;1.95;;
42726;SDS011;28372;56.832;60.658;2023-08-24T03:16:02;4.30;;;1.92;;
42726;SDS011;28372;56.832;60.658;2023-08-24T03:18:31;5.03;;;1.98;;
42726;SDS011;28372;56.832;60.658;2023-08-24T03:21:01;6.18;;;2.00;;
42726;SDS011;28372;56.832;60.658;2023-08-24T03:23:32;7.22;;;1.70;;
42726;SDS011;28372;56.832;60.658;2023-08-24T03:26:00;5.63;;;1.70;;
42726;SDS011;28372;56.832;60.658;2023-08-24T03:28:28;6.30;;;1.70;;
42726;SDS011;28372;56.832;60.658;2023-08-24T03:30:56;4.15;;;1.52;;
42726;SDS011;28372;56.832;60.658;2023-08-24T03:33:24;3.90;;;1.50;;
42726;SDS011;28372;56.832;60.658;2023-08-24T03:35:52;5.07;;;1.60;;
42726;SDS011;28372;56.832;60.658;2023-08-24T03:38:20;4.15;;;1.60;;
42726;SDS011;28372;56.832;60.658;2023-08-24T03:40:48;2.90;;;1.52;;
42726;SDS011;28372;56.832;60.658;2023-08-24T03:43:15;5.63;;;1.90;;
42726;SDS011;28372;56.832;60.658;2023-08-24T03:45:43;5.35;;;1.98;;
42726;SDS011;28372;56.832;60.658;2023-08-24T03:48:11;4.80;;;1.83;;
42726;SDS011;28372;56.832;60.658;2023-08-24T03:50:39;3.55;;;1.88;;
42726;SDS011;28372;56.832;60.658;2023-08-24T03:53:06;4.57;;;1.80;;
42726;SDS011;28372;56.832;60.658;2023-08-24T03:55:34;4.55;;;1.80;;
42726;SDS011;28372;56.832;60.658;2023-08-24T03:58:02;6.30;;;1.80;;
42726;SDS011;28372;56.832;60.658;2023-08-24T04:00:30;5.25;;;2.05;;
42726;SDS011;28372;56.832;60.658;2023-08-24T04:03:00;4.43;;;1.73;;
42726;SDS011;28372;56.832;60.658;2023-08-24T04:05:29;3.08;;;1.50;;
42726;SDS011;28372;56.832;60.658;2023-08-24T04:07:58;6.07;;;1.70;;
42726;SDS011;28372;56.832;60.658;2023-08-24T04:10:28;5.18;;;1.48;;
42726;SDS011;28372;56.832;60.658;2023-08-24T04:12:58;4.68;;;1.73;;
42726;SDS011;28372;56.832;60.658;2023-08-24T04:15:26;4.70;;;1.45;;
42726;SDS011;28372;56.832;60.658;2023-08-24T04:17:54;5.15;;;1.40;;
42726;SDS011;28372;56.832;60.658;2023-08-24T04:20:22;3.45;;;1.40;;
42726;SDS011;28372;56.832;60.658;2023-08-24T04:22:50;3.53;;;1.23;;
42726;SDS011;28372;56.832;60.658;2023-08-24T04:25:17;2.22;;;1.35;;
42726;SDS011;28372;56.832;60.658;2023-08-24T04:27:45;3.22;;;1.30;;
42726;SDS011;28372;56.832;60.658;2023-08-24T04:30:13;2.55;;;1.13;;
42726;SDS011;28372;56.832;60.658;2023-08-24T04:32:41;5.90;;;1.13;;
42726;SDS011;28372;56.832;60.658;2023-08-24T04:35:09;3.47;;;1.40;;
42726;SDS011;28372;56.832;60.658;2023-08-24T04:37:37;4.22;;;1.30;;
42726;SDS011;28372;56.832;60.658;2023-08-24T04:40:05;3.72;;;1.02;;
42726;SDS011;28372;56.832;60.658;2023-08-24T04:42:34;2.75;;;1.10;;
42726;SDS011;28372;56.832;60.658;2023-08-24T04:45:02;2.60;;;1.00;;
42726;SDS011;28372;56.832;60.658;2023-08-24T04:47:30;3.63;;;1.20;;
42726;SDS011;28372;56.832;60.658;2023-08-24T04:49:58;3.78;;;1.20;;
42726;SDS011;28372;56.832;60.658;2023-08-24T04:52:26;2.42;;;1.10;;
42726;SDS011;28372;56.832;60.658;2023-08-24T04:54:53;2.42;;;1.10;;
42726;SDS011;28372;56.832;60.658;2023-08-24T04:57:21;3.13;;;1.38;;
42726;SDS011;28372;56.832;60.658;2023-08-24T04:59:51;3.90;;;1.30;;
42726;SDS011;28372;56.832;60.658;2023-08-24T05:02:19;2.30;;;1.10;;
42726;SDS011;28372;56.832;60.658;2023-08-24T05:04:46;3.75;;;1.10;;
42726;SDS011;28372;56.832;60.658;2023-08-24T05:07:15;2.17;;;1.00;;
42726;SDS011;28372;56.832;60.658;2023-08-24T05:09:44;3.40;;;1.15;;
42726;SDS011;28372;56.832;60.658;2023-08-24T05:12:12;2.67;;;1.10;;
42726;SDS011;28372;56.832;60.658;2023-08-24T05:14:40;5.03;;;1.23;;
42726;SDS011;28372;56.832;60.658;2023-08-24T05:17:07;3.42;;;1.23;;
42726;SDS011;28372;56.832;60.658;2023-08-24T05:19:35;1.92;;;0.90;;
42726;SDS011;28372;56.832;60.658;2023-08-24T05:22:03;6.43;;;1.40;;
42726;SDS011;28372;56.832;60.658;2023-08-24T05:24:30;5.45;;;1.60;;
42726;SDS011;28372;56.832;60.658;2023-08-24T05:26:58;4.28;;;1.55;;
42726;SDS011;28372;56.832;60.658;2023-08-24T05:29:26;4.85;;;1.30;;
42726;SDS011;28372;56.832;60.658;2023-08-24T05:31:53;2.65;;;1.17;;
42726;SDS011;28372;56.832;60.658;2023-08-24T05:34:21;2.13;;;1.30;;
42726;SDS011;28372;56.832;60.658;2023-08-24T05:36:48;2.00;;;1.23;;
42726;SDS011;28372;56.832;60.658;2023-08-24T05:39:16;2.15;;;1.30;;
42726;SDS011;28372;56.832;60.658;2023-08-24T05:41:44;3.05;;;1.40;;
42726;SDS011;28372;56.832;60.658;2023-08-24T05:44:11;2.65;;;1.20;;
42726;SDS011;28372;56.832;60.658;2023-08-24T05:46:39;3.55;;;1.10;;
42726;SDS011;28372;56.832;60.658;2023-08-24T05:49:07;2.08;;;1.20;;
42726;SDS011;28372;56.832;60.658;2023-08-24T05:51:34;3.70;;;1.30;;
42726;SDS011;28372;56.832;60.658;2023-08-24T05:54:02;2.58;;;1.20;;
42726;SDS011;28372;56.832;60.658;2023-08-24T05:56:30;2.00;;;1.10;;
42726;SDS011;28372;56.832;60.658;2023-08-24T05:58:58;2.47;;;1.23;;
42726;SDS011;28372;56.832;60.658;2023-08-24T06:01:26;5.43;;;1.40;;
42726;SDS011;28372;56.832;60.658;2023-08-24T06:03:53;2.60;;;1.30;;
42726;SDS011;28372;56.832;60.658;2023-08-24T06:06:21;3.33;;;1.00;;
42726;SDS011;28372;56.832;60.658;2023-08-24T06:08:49;4.85;;;1.40;;
42726;SDS011;28372;56.832;60.658;2023-08-24T06:11:17;2.22;;;1.20;;
42726;SDS011;28372;56.832;60.658;2023-08-24T06:13:45;2.40;;;1.30;;
42726;SDS011;28372;56.832;60.658;2023-08-24T06:16:13;3.83;;;1.77;;
42726;SDS011;28372;56.832;60.658;2023-08-24T06:18:41;6.38;;;1.58;;
42726;SDS011;28372;56.832;60.658;2023-08-24T06:21:08;4.22;;;1.48;;
42726;SDS011;28372;56.832;60.658;2023-08-24T06:23:36;3.13;;;1.10;;
42726;SDS011;28372;56.832;60.658;2023-08-24T06:26:05;2.65;;;1.45;;
42726;SDS011;28372;56.832;60.658;2023-08-24T06:28:33;2.30;;;1.27;;
42726;SDS011;28372;56.832;60.658;2023-08-24T06:31:00;3.38;;;1.10;;
42726;SDS011;28372;56.832;60.658;2023-08-24T06:33:28;2.55;;;1.30;;
42726;SDS011;28372;56.832;60.658;2023-08-24T06:35:57;2.25;;;1.20;;
42726;SDS011;28372;56.832;60.658;2023-08-24T06:38:25;3.78;;;1.10;;
42726;SDS011;28372;56.832;60.658;2023-08-24T06:40:53;2.10;;;1.20;;
42726;SDS011;28372;56.832;60.658;2023-08-24T06:43:20;2.10;;;1.10;;
42726;SDS011;28372;56.832;60.658;2023-08-24T06:45:48;2.50;;;1.15;;
42726;SDS011;28372;56.832;60.658;2023-08-24T06:48:17;2.88;;;1.20;;
42726;SDS011;28372;56.832;60.658;2023-08-24T06:50:45;2.63;;;1.20;;
42726;SDS011;28372;56.832;60.658;2023-08-24T06:53:13;1.90;;;1.13;;
42726;SDS011;28372;56.832;60.658;2023-08-24T06:55:44;2.25;;;1.20;;
42726;SDS011;28372;56.832;60.658;2023-08-24T06:58:12;3.03;;;1.10;;
42726;SDS011;28372;56.832;60.658;2023-08-24T07:00:56;4.00;;;1.50;;
42726;SDS011;28372;56.832;60.658;2023-08-24T07:03:24;3.42;;;1.40;;
42726;SDS011;28372;56.832;60.658;2023-08-24T07:05:52;1.90;;;1.10;;
42726;SDS011;28372;56.832;60.658;2023-08-24T07:08:20;2.03;;;1.10;;
42726;SDS011;28372;56.832;60.658;2023-08-24T07:10:47;4.03;;;1.30;;
42726;SDS011;28372;56.832;60.658;2023-08-24T07:13:15;2.35;;;1.40;;
42726;SDS011;28372;56.832;60.658;2023-08-24T07:15:43;4.53;;;1.40;;
42726;SDS011;28372;56.832;60.658;2023-08-24T07:18:12;2.97;;;1.50;;
42726;SDS011;28372;56.832;60.658;2023-08-24T07:20:40;5.55;;;1.40;;
42726;SDS011;28372;56.832;60.658;2023-08-24T07:23:08;2.97;;;1.48;;
42726;SDS011;28372;56.832;60.658;2023-08-24T07:25:35;3.25;;;1.25;;
42726;SDS011;28372;56.832;60.658;2023-08-24T07:28:03;4.10;;;1.35;;
42726;SDS011;28372;56.832;60.658;2023-08-24T07:30:31;3.05;;;1.60;;
42726;SDS011;28372;56.832;60.658;2023-08-24T07:33:01;4.40;;;1.38;;
42726;SDS011;28372;56.832;60.658;2023-08-24T07:35:32;3.17;;;1.35;;
42726;SDS011;28372;56.832;60.658;2023-08-24T07:38:00;2.15;;;1.20;;
42726;SDS011;28372;56.832;60.658;2023-08-24T07:40:30;2.28;;;1.17;;
42726;SDS011;28372;56.832;60.658;2023-08-24T07:42:57;3.47;;;1.33;;
42726;SDS011;28372;56.832;60.658;2023-08-24T07:45:26;3.53;;;1.10;;
42726;SDS011;28372;56.832;60.658;2023-08-24T07:47:54;2.40;;;1.30;;
42726;SDS011;28372;56.832;60.658;2023-08-24T07:50:23;3.05;;;1.00;;
42726;SDS011;28372;56.832;60.658;2023-08-24T07:52:50;2.97;;;1.15;;
42726;SDS011;28372;56.832;60.658;2023-08-24T07:55:22;1.80;;;1.10;;
42726;SDS011;28372;56.832;60.658;2023-08-24T07:57:50;2.25;;;1.10;;
42726;SDS011;28372;56.832;60.658;2023-08-24T08:00:18;3.00;;;1.20;;
42726;SDS011;28372;56.832;60.658;2023-08-24T08:02:46;2.55;;;1.30;;
42726;SDS011;28372;56.832;60.658;2023-08-24T08:05:18;3.78;;;1.20;;
42726;SDS011;28372;56.832;60.658;2023-08-24T08:07:46;1.77;;;1.00;;
42726;SDS011;28372;56.832;60.658;2023-08-24T08:10:14;4.32;;;1.40;;
42726;SDS011;28372;56.832;60.658;2023-08-24T08:12:45;3.38;;;1.10;;
42726;SDS011;28372;56.832;60.658;2023-08-24T08:15:12;2.75;;;1.30;;
42726;SDS011;28372;56.832;60.658;2023-08-24T08:17:40;4.28;;;1.35;;
42726;SDS011;28372;56.832;60.658;2023-08-24T08:20:09;2.95;;;1.40;;
42726;SDS011;28372;56.832;60.658;2023-08-24T08:22:39;3.30;;;1.30;;
42726;SDS011;28372;56.832;60.658;2023-08-24T08:25:06;5.38;;;1.50;;
42726;SDS011;28372;56.832;60.658;2023-08-24T08:27:34;3.50;;;1.63;;
42726;SDS011;28372;56.832;60.658;2023-08-24T08:30:03;4.43;;;1.45;;
42726;SDS011;28372;56.832;60.658;2023-08-24T08:32:33;6.78;;;1.75;;
42726;SDS011;28372;56.832;60.658;2023-08-24T08:35:01;4.20;;;1.50;;
42726;SDS011;28372;56.832;60.658;2023-08-24T08:37:31;2.38;;;1.45;;
42726;SDS011;28372;56.832;60.658;2023-08-24T08:39:59;4.47;;;1.60;;
42726;SDS011;28372;56.832;60.658;2023-08-24T08:42:29;5.18;;;1.67;;
42726;SDS011;28372;56.832;60.658;2023-08-24T08:44:57;3.78;;;1.63;;
42726;SDS011;28372;56.832;60.658;2023-08-24T08:47:30;3.78;;;1.60;;
42726;SDS011;28372;56.832;60.658;2023-08-24T08:49:58;3.78;;;1.70;;
42726;SDS011;28372;56.832;60.658;2023-08-24T08:52:33;5.55;;;1.80;;
42726;SDS011;28372;56.832;60.658;2023-08-24T08:55:01;4.82;;;1.80;;
42726;SDS011;28372;56.832;60.658;2023-08-24T08:57:33;5.85;;;1.70;;
42726;SDS011;28372;56.832;60.658;2023-08-24T09:00:02;4.70;;;1.73;;
42726;SDS011;28372;56.832;60.658;2023-08-24T09:02:33;3.50;;;1.60;;
42726;SDS011;28372;56.832;60.658;2023-08-24T09:05:01;7.15;;;1.90;;
42726;SDS011;28372;56.832;60.658;2023-08-24T09:07:32;6.95;;;1.98;;
42726;SDS011;28372;56.832;60.658;2023-08-24T09:10:02;3.65;;;1.70;;
42726;SDS011;28372;56.832;60.658;2023-08-24T09:12:31;3.97;;;1.50;;
42726;SDS011;28372;56.832;60.658;2023-08-24T09:15:06;3.80;;;1.60;;
42726;SDS011;28372;56.832;60.658;2023-08-24T09:17:34;3.45;;;1.70;;
42726;SDS011;28372;56.832;60.658;2023-08-24T09:20:05;4.60;;;1.92;;
42726;SDS011;28372;56.832;60.658;2023-08-24T09:22:34;2.78;;;1.80;;
42726;SDS011;28372;56.832;60.658;2023-08-24T09:25:06;4.07;;;1.35;;
42726;SDS011;28372;56.832;60.658;2023-08-24T09:27:37;3.70;;;1.65;;
42726;SDS011;28372;56.832;60.658;2023-08-24T09:30:04;3.90;;;1.58;;
42726;SDS011;28372;56.832;60.658;2023-08-24T09:32:33;2.65;;;1.60;;
42726;SDS011;28372;56.832;60.658;2023-08-24T09:35:08;3.97;;;1.75;;
42726;SDS011;28372;56.832;60.658;2023-08-24T09:37:37;3.58;;;1.73;;
42726;SDS011;28372;56.832;60.658;2023-08-24T09:40:06;3.25;;;1.70;;
42726;SDS011;28372;56.832;60.658;2023-08-24T09:42:39;3.20;;;1.73;;
42726;SDS011;28372;56.832;60.658;2023-08-24T09:45:13;3.42;;;1.48;;
42726;SDS011;28372;56.832;60.658;2023-08-24T09:47:51;5.13;;;1.45;;
42726;SDS011;28372;56.832;60.658;2023-08-24T09:50:22;4.15;;;1.60;;
42726;SDS011;28372;56.832;60.658;2023-08-24T09:52:50;3.45;;;1.45;;
42726;SDS011;28372;56.832;60.658;2023-08-24T09:55:20;3.38;;;1.38;;
42726;SDS011;28372;56.832;60.658;2023-08-24T09:57:52;2.83;;;1.60;;
42726;SDS011;28372;56.832;60.658;2023-08-24T10:00:24;5.63;;;1.75;;
42726;SDS011;28372;56.832;60.658;2023-08-24T10:02:53;4.80;;;1.55;;
42726;SDS011;28372;56.832;60.658;2023-08-24T10:05:23;3.00;;;1.42;;
42726;SDS011;28372;56.832;60.658;2023-08-24T10:07:56;5.00;;;1.50;;
42726;SDS011;28372;56.832;60.658;2023-08-24T10:10:25;5.65;;;1.48;;
42726;SDS011;28372;56.832;60.658;2023-08-24T10:12:56;5.13;;;1.52;;
42726;SDS011;28372;56.832;60.658;2023-08-24T10:15:26;7.10;;;1.38;;
42726;SDS011;28372;56.832;60.658;2023-08-24T10:17:56;5.03;;;1.40;;
42726;SDS011;28372;56.832;60.658;2023-08-24T10:20:24;6.90;;;1.40;;
42726;SDS011;28372;56.832;60.658;2023-08-24T10:22:53;5.50;;;1.10;;
42726;SDS011;28372;56.832;60.658;2023-08-24T10:25:22;4.63;;;1.27;;
42726;SDS011;28372;56.832;60.658;2023-08-24T10:27:51;4.30;;;1.50;;
42726;SDS011;28372;56.832;60.658;2023-08-24T10:30:21;6.35;;;1.60;;
42726;SDS011;28372;56.832;60.658;2023-08-24T10:32:49;3.80;;;1.50;;
42726;SDS011;28372;56.832;60.658;2023-08-24T10:35:21;5.72;;;1.38;;
42726;SDS011;28372;56.832;60.658;2023-08-24T10:37:51;4.57;;;1.40;;
42726;SDS011;28372;56.832;60.658;2023-08-24T10:40:33;3.67;;;1.40;;
42726;SDS011;28372;56.832;60.658;2023-08-24T10:43:04;4.75;;;1.60;;
42726;SDS011;28372;56.832;60.658;2023-08-24T10:46:11;4.20;;;1.35;;
42726;SDS011;28372;56.832;60.658;2023-08-24T10:48:28;9.05;;;1.60;;
42726;SDS011;28372;56.832;60.658;2023-08-24T10:51:16;6.20;;;2.03;;
42726;SDS011;28372;56.832;60.658;2023-08-24T10:53:52;2.38;;;0.90;;
42726;SDS011;28372;56.832;60.658;2023-08-24T10:56:21;1.85;;;0.90;;
42726;SDS011;28372;56.832;60.658;2023-08-24T10:59:09;1.23;;;0.77;;
42726;SDS011;28372;56.832;60.658;2023-08-24T11:01:41;2.42;;;0.90;;
42726;SDS011;28372;56.832;60.658;2023-08-24T11:04:14;2.47;;;0.77;;
42726;SDS011;28372;56.832;60.658;2023-08-24T11:09:21;1.73;;;0.70;;
42726;SDS011;28372;56.832;60.658;2023-08-24T11:12:00;3.40;;;0.80;;
42726;SDS011;28372;56.832;60.658;2023-08-24T11:14:30;1.10;;;0.80;;
42726;SDS011;28372;56.832;60.658;2023-08-24T11:17:00;2.22;;;0.93;;
42726;SDS011;28372;56.832;60.658;2023-08-24T11:19:48;2.75;;;1.00;;
42726;SDS011;28372;56.832;60.658;2023-08-24T11:22:20;2.17;;;0.85;;
42726;SDS011;28372;56.832;60.658;2023-08-24T11:24:48;2.80;;;1.00;;
42726;SDS011;28372;56.832;60.658;2023-08-24T11:27:15;1.75;;;1.02;;
42726;SDS011;28372;56.832;60.658;2023-08-24T11:29:43;3.30;;;1.20;;
42726;SDS011;28372;56.832;60.658;2023-08-24T11:32:11;9.52;;;1.40;;
42726;SDS011;28372;56.832;60.658;2023-08-24T11:34:38;2.35;;;1.17;;
42726;SDS011;28372;56.832;60.658;2023-08-24T11:37:06;11.23;;;1.65;;
42726;SDS011;28372;56.832;60.658;2023-08-24T11:39:46;4.00;;;1.20;;
42726;SDS011;28372;56.832;60.658;2023-08-24T11:42:13;3.40;;;1.20;;
42726;SDS011;28372;56.832;60.658;2023-08-24T11:44:45;2.70;;;1.10;;
42726;SDS011;28372;56.832;60.658;2023-08-24T11:47:14;2.63;;;1.20;;
42726;SDS011;28372;56.832;60.658;2023-08-24T11:49:43;2.58;;;1.40;;
42726;SDS011;28372;56.832;60.658;2023-08-24T11:52:11;3.92;;;1.20;;
42726;SDS011;28372;56.832;60.658;2023-08-24T11:54:43;5.35;;;1.40;;
42726;SDS011;28372;56.832;60.658;2023-08-24T11:57:11;4.88;;;1.40;;
42726;SDS011;28372;56.832;60.658;2023-08-24T11:59:39;7.38;;;1.67;;
42726;SDS011;28372;56.832;60.658;2023-08-24T12:02:08;7.22;;;1.85;;
42726;SDS011;28372;56.832;60.658;2023-08-24T12:04:41;6.22;;;1.60;;
42726;SDS011;28372;56.832;60.658;2023-08-24T12:07:11;7.55;;;1.60;;
42726;SDS011;28372;56.832;60.658;2023-08-24T12:09:40;20.27;;;2.10;;
42726;SDS011;28372;56.832;60.658;2023-08-24T12:12:12;8.18;;;1.70;;
42726;SDS011;28372;56.832;60.658;2023-08-24T12:14:44;5.38;;;2.00;;
42726;SDS011;28372;56.832;60.658;2023-08-24T12:17:14;7.80;;;1.88;;
42726;SDS011;28372;56.832;60.658;2023-08-24T12:19:43;5.45;;;1.50;;
42726;SDS011;28372;56.832;60.658;2023-08-24T12:22:26;10.65;;;2.08;;
42726;SDS011;28372;56.832;60.658;2023-08-24T12:24:53;7.60;;;1.80;;
42726;SDS011;28372;56.832;60.658;2023-08-24T12:27:25;5.35;;;1.58;;
42726;SDS011;28372;56.832;60.658;2023-08-24T12:29:53;2.88;;;1.50;;
42726;SDS011;28372;56.832;60.658;2023-08-24T12:32:21;4.13;;;1.40;;
42726;SDS011;28372;56.832;60.658;2023-08-24T12:34:53;4.55;;;1.45;;
42726;SDS011;28372;56.832;60.658;2023-08-24T12:37:24;5.80;;;1.77;;
42726;SDS011;28372;56.832;60.658;2023-08-24T12:39:51;3.92;;;1.63;;
42726;SDS011;28372;56.832;60.658;2023-08-24T12:42:21;3.17;;;1.70;;
42726;SDS011;28372;56.832;60.658;2023-08-24T12:44:48;4.68;;;1.70;;
42726;SDS011;28372;56.832;60.658;2023-08-24T12:47:16;5.75;;;1.70;;
42726;SDS011;28372;56.832;60.658;2023-08-24T12:49:47;5.53;;;1.70;;
42726;SDS011;28372;56.832;60.658;2023-08-24T12:52:15;4.72;;;2.10;;
42726;SDS011;28372;56.832;60.658;2023-08-24T12:54:43;6.63;;;3.20;;
42726;SDS011;28372;56.832;60.658;2023-08-24T12:57:11;5.30;;;1.58;;
42726;SDS011;28372;56.832;60.658;2023-08-24T12:59:39;3.17;;;1.65;;
42726;SDS011;28372;56.832;60.658;2023-08-24T13:02:07;3.85;;;2.30;;
42726;SDS011;28372;56.832;60.658;2023-08-24T13:04:35;6.15;;;2.20;;
42726;SDS011;28372;56.832;60.658;2023-08-24T13:07:02;4.45;;;2.00;;
42726;SDS011;28372;56.832;60.658;2023-08-24T13:09:31;3.20;;;1.58;;
42726;SDS011;28372;56.832;60.658;2023-08-24T13:11:59;5.72;;;1.70;;
42726;SDS011;28372;56.832;60.658;2023-08-24T13:14:26;5.20;;;2.70;;
42726;SDS011;28372;56.832;60.658;2023-08-24T13:16:54;18.08;;;2.22;;
42726;SDS011;28372;56.832;60.658;2023-08-24T13:19:22;12.23;;;2.85;;
42726;SDS011;28372;56.832;60.658;2023-08-24T13:21:50;3.63;;;1.50;;
42726;SDS011;28372;56.832;60.658;2023-08-24T13:24:19;4.30;;;2.10;;
42726;SDS011;28372;56.832;60.658;2023-08-24T13:26:47;4.60;;;1.40;;
42726;SDS011;28372;56.832;60.658;2023-08-24T13:29:15;3.55;;;1.20;;
42726;SDS011;28372;56.832;60.658;2023-08-24T13:31:43;4.40;;;1.42;;
42726;SDS011;28372;56.832;60.658;2023-08-24T13:34:11;3.67;;;1.45;;
42726;SDS011;28372;56.832;60.658;2023-08-24T13:36:39;6.63;;;1.58;;
42726;SDS011;28372;56.832;60.658;2023-08-24T13:39:07;3.92;;;1.40;;
42726;SDS011;28372;56.832;60.658;2023-08-24T13:41:34;3.65;;;1.48;;
42726;SDS011;28372;56.832;60.658;2023-08-24T13:44:02;5.60;;;1.73;;
42726;SDS011;28372;56.832;60.658;2023-08-24T13:46:30;7.28;;;1.85;;
42726;SDS011;28372;56.832;60.658;2023-08-24T13:48:57;3.60;;;1.42;;
42726;SDS011;28372;56.832;60.658;2023-08-24T13:51:25;4.82;;;1.58;;
42726;SDS011;28372;56.832;60.658;2023-08-24T13:53:53;6.28;;;1.58;;
42726;SDS011;28372;56.832;60.658;2023-08-24T13:56:21;4.20;;;1.50;;
42726;SDS011;28372;56.832;60.658;2023-08-24T13:58:48;6.53;;;1.40;;
42726;SDS011;28372;56.832;60.658;2023-08-24T14:01:16;4.85;;;1.98;;
42726;SDS011;28372;56.832;60.658;2023-08-24T14:03:44;3.88;;;2.22;;
42726;SDS011;28372;56.832;60.658;2023-08-24T14:06:12;3.83;;;1.23;;
42726;SDS011;28372;56.832;60.658;2023-08-24T14:08:40;7.25;;;1.75;;
42726;SDS011;28372;56.832;60.658;2023-08-24T14:11:07;5.22;;;1.40;;
42726;SDS011;28372;56.832;60.658;2023-08-24T14:13:37;3.30;;;1.40;;
42726;SDS011;28372;56.832;60.658;2023-08-24T14:16:05;5.20;;;1.40;;
42726;SDS011;28372;56.832;60.658;2023-08-24T14:18:33;3.95;;;1.40;;
42726;SDS011;28372;56.832;60.658;2023-08-24T14:21:03;4.47;;;1.70;;
42726;SDS011;28372;56.832;60.658;2023-08-24T14:23:31;3.92;;;1.88;;
42726;SDS011;28372;56.832;60.658;2023-08-24T14:25:59;5.05;;;1.50;;
42726;SDS011;28372;56.832;60.658;2023-08-24T14:28:26;6.47;;;2.03;;
42726;SDS011;28372;56.832;60.658;2023-08-24T14:31:16;4.82;;;2.45;;
42726;SDS011;28372;56.832;60.658;2023-08-24T14:33:44;5.88;;;2.10;;
42726;SDS011;28372;56.832;60.658;2023-08-24T14:36:12;6.32;;;2.38;;
42726;SDS011;28372;56.832;60.658;2023-08-24T14:38:40;8.48;;;2.08;;
42726;SDS011;28372;56.832;60.658;2023-08-24T14:41:08;7.78;;;2.40;;
42726;SDS011;28372;56.832;60.658;2023-08-24T14:43:37;8.00;;;2.55;;
42726;SDS011;28372;56.832;60.658;2023-08-24T14:46:08;7.25;;;2.65;;
42726;SDS011;28372;56.832;60.658;2023-08-24T14:48:36;5.05;;;2.75;;
42726;SDS011;28372;56.832;60.658;2023-08-24T14:51:04;7.35;;;2.50;;
42726;SDS011;28372;56.832;60.658;2023-08-24T14:53:32;8.07;;;3.03;;
42726;SDS011;28372;56.832;60.658;2023-08-24T14:56:00;4.38;;;2.10;;